DCLCC EDDN-EDMO
Flight info
| Callsign | DCLCC |
|---|---|
| Flight time | 0h 22m |
| Altitude | 20000 |
| Route | BOLSI1G BOLSI DCT AKANU DCT DODIL/N0407F190 Y161 MAH |
| Aircraft | C25C/M-SDE2E3FGHRWXY/LB1 |
Departure
| Time | 2026-04-24 19:12 |
|---|---|
| Airport | Nuremberg Airport (EDDN) |
Arrival
| Time | 2026-04-24 19:34 |
|---|---|
| Airport | Oberpfaffenhofen Airport (EDMO) |
| Time | Latitude | Longitude | Altitude | Speed | Heading |
|---|---|---|---|---|---|
| 2026-04-24 18:54 | 49.49625 | 11.07141 | 1019 ft | 0 kts | 188° |
| 2026-04-24 19:03 | 49.49623 | 11.07141 | 1019 ft | 1 kts | 188° |
| 2026-04-24 19:03 | 49.49604 | 11.07136 | 1019 ft | 3 kts | 187° |
| 2026-04-24 19:03 | 49.49586 | 11.07161 | 1020 ft | 7 kts | 112° |
| 2026-04-24 19:04 | 49.49591 | 11.07197 | 1020 ft | 0 kts | 49° |
| 2026-04-24 19:06 | 49.49592 | 11.07198 | 1020 ft | 1 kts | 49° |
| 2026-04-24 19:06 | 49.49597 | 11.07207 | 1019 ft | 0 kts | 39° |
| 2026-04-24 19:07 | 49.49624 | 11.07225 | 1019 ft | 13 kts | 43° |
| 2026-04-24 19:07 | 49.49630 | 11.07320 | 1019 ft | 14 kts | 98° |
| 2026-04-24 19:07 | 49.49610 | 11.07520 | 1019 ft | 15 kts | 98° |
| 2026-04-24 19:08 | 49.49595 | 11.07676 | 1020 ft | 15 kts | 98° |
| 2026-04-24 19:08 | 49.49580 | 11.07837 | 1021 ft | 15 kts | 99° |
| 2026-04-24 19:08 | 49.49563 | 11.08005 | 1021 ft | 16 kts | 98° |
| 2026-04-24 19:08 | 49.49546 | 11.08181 | 1022 ft | 17 kts | 98° |
| 2026-04-24 19:09 | 49.49535 | 11.08304 | 1023 ft | 17 kts | 83° |
| 2026-04-24 19:09 | 49.49619 | 11.08395 | 1027 ft | 6 kts | 51° |
| 2026-04-24 19:09 | 49.49634 | 11.08425 | 1028 ft | 0 kts | 54° |
| 2026-04-24 19:10 | 49.49639 | 11.08436 | 1028 ft | 8 kts | 54° |
| 2026-04-24 19:10 | 49.49700 | 11.08549 | 1030 ft | 16 kts | 33° |
| 2026-04-24 19:11 | 49.49712 | 11.08559 | 1030 ft | 0 kts | 20° |
| 2026-04-24 19:11 | 49.49734 | 11.08566 | 1030 ft | 14 kts | 11° |
| 2026-04-24 19:11 | 49.49799 | 11.08525 | 1031 ft | 11 kts | 279° |
| 2026-04-24 19:11 | 49.49852 | 11.07957 | 1023 ft | 113 kts | 279° |
| 2026-04-24 19:12 | 49.50011 | 11.06527 | 1660 ft | 146 kts | 281° |
| 2026-04-24 19:12 | 49.50176 | 11.04825 | 2371 ft | 175 kts | 280° |
| 2026-04-24 19:12 | 49.50292 | 11.03537 | 2813 ft | 192 kts | 281° |
| 2026-04-24 19:12 | 49.50508 | 11.01317 | 3632 ft | 227 kts | 280° |
| 2026-04-24 19:13 | 49.50758 | 10.98787 | 4594 ft | 251 kts | 280° |
| 2026-04-24 19:13 | 49.51014 | 10.96090 | 5766 ft | 257 kts | 280° |
| 2026-04-24 19:13 | 49.51218 | 10.93308 | 6774 ft | 273 kts | 270° |
| 2026-04-24 19:13 | 49.50648 | 10.90382 | 7216 ft | 296 kts | 248° |
| 2026-04-24 19:14 | 49.49782 | 10.87619 | 8403 ft | 280 kts | 246° |
| 2026-04-24 19:14 | 49.48897 | 10.84936 | 9545 ft | 286 kts | 246° |
| 2026-04-24 19:14 | 49.48036 | 10.82140 | 10568 ft | 291 kts | 248° |
| 2026-04-24 19:14 | 49.47114 | 10.79346 | 11596 ft | 296 kts | 238° |
| 2026-04-24 19:15 | 49.45548 | 10.77191 | 12396 ft | 315 kts | 214° |
| 2026-04-24 19:15 | 49.43397 | 10.76099 | 12675 ft | 347 kts | 187° |
| 2026-04-24 19:15 | 49.40954 | 10.76021 | 13518 ft | 352 kts | 180° |
| 2026-04-24 19:15 | 49.38495 | 10.76134 | 14354 ft | 356 kts | 180° |
| 2026-04-24 19:16 | 49.33486 | 10.76034 | 15906 ft | 363 kts | 183° |
| 2026-04-24 19:16 | 49.30951 | 10.75964 | 16668 ft | 367 kts | 182° |
| 2026-04-24 19:16 | 49.28390 | 10.75938 | 17424 ft | 370 kts | 182° |
| 2026-04-24 19:17 | 49.25807 | 10.75902 | 18173 ft | 373 kts | 182° |
| 2026-04-24 19:17 | 49.23201 | 10.75717 | 18838 ft | 375 kts | 191° |
| 2026-04-24 19:17 | 49.20725 | 10.74467 | 19481 ft | 376 kts | 202° |
| 2026-04-24 19:17 | 49.18242 | 10.73116 | 20085 ft | 383 kts | 201° |
| 2026-04-24 19:18 | 49.15561 | 10.72284 | 20146 ft | 409 kts | 182° |
| 2026-04-24 19:18 | 49.12732 | 10.73142 | 20153 ft | 419 kts | 161° |
| 2026-04-24 19:18 | 49.10091 | 10.74892 | 20164 ft | 411 kts | 155° |
| 2026-04-24 19:18 | 49.07574 | 10.76784 | 20168 ft | 405 kts | 155° |
| 2026-04-24 19:19 | 49.05030 | 10.78577 | 20171 ft | 401 kts | 157° |
| 2026-04-24 19:19 | 49.02468 | 10.80248 | 20176 ft | 402 kts | 158° |
| 2026-04-24 19:19 | 48.99870 | 10.81979 | 20180 ft | 412 kts | 157° |
| 2026-04-24 19:19 | 48.97243 | 10.83788 | 20168 ft | 409 kts | 156° |
| 2026-04-24 19:20 | 48.94699 | 10.85539 | 19803 ft | 393 kts | 157° |
| 2026-04-24 19:20 | 48.92233 | 10.87199 | 19435 ft | 381 kts | 157° |
| 2026-04-24 19:20 | 48.89835 | 10.88815 | 19070 ft | 372 kts | 157° |
| 2026-04-24 19:20 | 48.87497 | 10.90395 | 18712 ft | 364 kts | 156° |
| 2026-04-24 19:21 | 48.85198 | 10.91953 | 18347 ft | 358 kts | 157° |
| 2026-04-24 19:21 | 48.82962 | 10.93463 | 17941 ft | 354 kts | 156° |
| 2026-04-24 19:21 | 48.80721 | 10.94971 | 17535 ft | 350 kts | 156° |
| 2026-04-24 19:21 | 48.78509 | 10.96463 | 17142 ft | 347 kts | 157° |
| 2026-04-24 19:22 | 48.76991 | 10.97193 | 16877 ft | 344 kts | 168° |
| 2026-04-24 19:22 | 48.74046 | 10.98983 | 16455 ft | 339 kts | 150° |
| 2026-04-24 19:22 | 48.71984 | 11.00749 | 16078 ft | 342 kts | 152° |
| 2026-04-24 19:22 | 48.69840 | 11.02344 | 15625 ft | 345 kts | 156° |
| 2026-04-24 19:23 | 48.67604 | 11.03728 | 15169 ft | 348 kts | 158° |
| 2026-04-24 19:23 | 48.65365 | 11.05168 | 14709 ft | 350 kts | 156° |
| 2026-04-24 19:23 | 48.63134 | 11.06697 | 14242 ft | 352 kts | 155° |
| 2026-04-24 19:23 | 48.60895 | 11.08223 | 13754 ft | 354 kts | 156° |
| 2026-04-24 19:24 | 48.58641 | 11.09732 | 13273 ft | 354 kts | 156° |
| 2026-04-24 19:24 | 48.56391 | 11.11221 | 12807 ft | 353 kts | 156° |
| 2026-04-24 19:24 | 48.54176 | 11.12707 | 12351 ft | 352 kts | 156° |
| 2026-04-24 19:24 | 48.51939 | 11.14200 | 11884 ft | 351 kts | 156° |
| 2026-04-24 19:25 | 48.49745 | 11.15670 | 11427 ft | 339 kts | 156° |
| 2026-04-24 19:25 | 48.47613 | 11.17085 | 10988 ft | 329 kts | 156° |
| 2026-04-24 19:25 | 48.45554 | 11.18459 | 10561 ft | 317 kts | 157° |
| 2026-04-24 19:25 | 48.43580 | 11.19771 | 10156 ft | 303 kts | 156° |
| 2026-04-24 19:26 | 48.41684 | 11.21033 | 9746 ft | 292 kts | 157° |
| 2026-04-24 19:26 | 48.39853 | 11.22248 | 9357 ft | 283 kts | 157° |
| 2026-04-24 19:26 | 48.38077 | 11.23426 | 9007 ft | 275 kts | 158° |
| 2026-04-24 19:26 | 48.36369 | 11.24561 | 8654 ft | 269 kts | 158° |
| 2026-04-24 19:27 | 48.34653 | 11.25696 | 8298 ft | 264 kts | 158° |
| 2026-04-24 19:27 | 48.33008 | 11.26788 | 7962 ft | 259 kts | 158° |
| 2026-04-24 19:27 | 48.31360 | 11.27875 | 7619 ft | 256 kts | 158° |
| 2026-04-24 19:27 | 48.29732 | 11.28956 | 7283 ft | 254 kts | 158° |
| 2026-04-24 19:28 | 48.28142 | 11.30003 | 6958 ft | 252 kts | 158° |
| 2026-04-24 19:28 | 48.26637 | 11.31311 | 6619 ft | 253 kts | 137° |
| 2026-04-24 19:28 | 48.25721 | 11.33536 | 6279 ft | 252 kts | 114° |
| 2026-04-24 19:28 | 48.25071 | 11.35979 | 5949 ft | 250 kts | 110° |
| 2026-04-24 19:29 | 48.23869 | 11.40886 | 5165 ft | 251 kts | 111° |
| 2026-04-24 19:29 | 48.23134 | 11.43197 | 5039 ft | 239 kts | 129° |
| 2026-04-24 19:29 | 48.21842 | 11.44628 | 5011 ft | 229 kts | 158° |
| 2026-04-24 19:30 | 48.20300 | 11.44972 | 4945 ft | 220 kts | 188° |
| 2026-04-24 19:30 | 48.19014 | 11.43970 | 4676 ft | 207 kts | 230° |
| 2026-04-24 19:30 | 48.18201 | 11.42220 | 4416 ft | 203 kts | 232° |
| 2026-04-24 19:30 | 48.17197 | 11.40731 | 4147 ft | 203 kts | 226° |
| 2026-04-24 19:31 | 48.16175 | 11.39302 | 3875 ft | 194 kts | 225° |
| 2026-04-24 19:31 | 48.15227 | 11.38003 | 3614 ft | 178 kts | 225° |
| 2026-04-24 19:31 | 48.14339 | 11.36790 | 3399 ft | 169 kts | 226° |
| 2026-04-24 19:31 | 48.13532 | 11.35696 | 3184 ft | 145 kts | 225° |
| 2026-04-24 19:32 | 48.12829 | 11.34736 | 2992 ft | 131 kts | 226° |
| 2026-04-24 19:32 | 48.12180 | 11.33836 | 2819 ft | 124 kts | 228° |
| 2026-04-24 19:32 | 48.11548 | 11.32973 | 2647 ft | 121 kts | 226° |
| 2026-04-24 19:32 | 48.10929 | 11.32123 | 2477 ft | 119 kts | 225° |
| 2026-04-24 19:33 | 48.10318 | 11.31287 | 2313 ft | 118 kts | 224° |
| 2026-04-24 19:33 | 48.09713 | 11.30462 | 2152 ft | 117 kts | 224° |
| 2026-04-24 19:33 | 48.09115 | 11.29646 | 1998 ft | 116 kts | 224° |
| 2026-04-24 19:33 | 48.08541 | 11.28869 | 1926 ft | 100 kts | 225° |
| 2026-04-24 19:34 | 48.08146 | 11.28322 | 1922 ft | 39 kts | 216° |
| 2026-04-24 19:34 | 48.07973 | 11.28085 | 1923 ft | 32 kts | 222° |
| 2026-04-24 19:34 | 48.07822 | 11.27879 | 1925 ft | 28 kts | 223° |
| 2026-04-24 19:34 | 48.07685 | 11.27691 | 1925 ft | 26 kts | 222° |
| 2026-04-24 19:35 | 48.07651 | 11.27552 | 1922 ft | 14 kts | 315° |
| 2026-04-24 19:35 | 48.07739 | 11.27581 | 1920 ft | 14 kts | 37° |
| 2026-04-24 19:35 | 48.07812 | 11.27680 | 1920 ft | 14 kts | 42° |
| 2026-04-24 19:35 | 48.07899 | 11.27754 | 1919 ft | 15 kts | 19° |
| 2026-04-24 19:36 | 48.08002 | 11.27779 | 1919 ft | 15 kts | 1° |